sensor_id;sensor_type;location;lat;lon;timestamp;temperature;humidity
3232;DHT22;1628;48.884;9.210;2022-07-23T04:01:41;23.30;99.90
3232;DHT22;1628;48.884;9.210;2022-07-23T04:04:08;23.30;99.90
3232;DHT22;1628;48.884;9.210;2022-07-23T04:06:35;23.30;99.90
3232;DHT22;1628;48.884;9.210;2022-07-23T04:09:02;23.30;99.90
3232;DHT22;1628;48.884;9.210;2022-07-23T04:11:28;23.40;99.90
3232;DHT22;1628;48.884;9.210;2022-07-23T04:13:55;23.40;99.90
3232;DHT22;1628;48.884;9.210;2022-07-23T04:16:22;23.40;99.90
3232;DHT22;1628;48.884;9.210;2022-07-23T04:18:50;23.50;99.90
3232;DHT22;1628;48.884;9.210;2022-07-23T04:21:17;23.50;99.90
3232;DHT22;1628;48.884;9.210;2022-07-23T04:23:43;23.50;99.90
3232;DHT22;1628;48.884;9.210;2022-07-23T04:26:10;23.60;99.90
3232;DHT22;1628;48.884;9.210;2022-07-23T04:28:37;23.60;99.90
3232;DHT22;1628;48.884;9.210;2022-07-23T04:31:04;23.60;99.90
3232;DHT22;1628;48.884;9.210;2022-07-23T04:33:30;23.60;99.90
3232;DHT22;1628;48.884;9.210;2022-07-23T04:35:58;23.60;99.90
3232;DHT22;1628;48.884;9.210;2022-07-23T04:38:25;23.60;99.90
3232;DHT22;1628;48.884;9.210;2022-07-23T04:40:52;23.70;99.90
3232;DHT22;1628;48.884;9.210;2022-07-23T04:43:19;23.70;99.90
3232;DHT22;1628;48.884;9.210;2022-07-23T04:45:46;23.80;99.90
3232;DHT22;1628;48.884;9.210;2022-07-23T04:48:12;23.80;99.90
3232;DHT22;1628;48.884;9.210;2022-07-23T04:50:39;23.80;99.90
3232;DHT22;1628;48.884;9.210;2022-07-23T04:53:07;23.90;99.90
3232;DHT22;1628;48.884;9.210;2022-07-23T04:55:34;24.00;99.90
3232;DHT22;1628;48.884;9.210;2022-07-23T04:58:01;24.00;99.90
3232;DHT22;1628;48.884;9.210;2022-07-23T05:00:27;24.10;99.90
3232;DHT22;1628;48.884;9.210;2022-07-23T05:02:54;24.10;99.90
3232;DHT22;1628;48.884;9.210;2022-07-23T05:05:21;24.20;99.90
3232;DHT22;1628;48.884;9.210;2022-07-23T05:07:47;24.20;99.90
3232;DHT22;1628;48.884;9.210;2022-07-23T05:10:16;24.30;99.90
3232;DHT22;1628;48.884;9.210;2022-07-23T05:12:42;24.40;99.90
3232;DHT22;1628;48.884;9.210;2022-07-23T05:15:09;24.40;99.90
3232;DHT22;1628;48.884;9.210;2022-07-23T05:17:36;24.50;99.90
3232;DHT22;1628;48.884;9.210;2022-07-23T05:20:03;24.50;99.90
3232;DHT22;1628;48.884;9.210;2022-07-23T05:22:30;24.60;99.90
3232;DHT22;1628;48.884;9.210;2022-07-23T05:24:57;24.70;99.90
3232;DHT22;1628;48.884;9.210;2022-07-23T05:27:25;24.80;99.90
3232;DHT22;1628;48.884;9.210;2022-07-23T05:29:52;24.90;99.90
3232;DHT22;1628;48.884;9.210;2022-07-23T05:32:19;25.00;99.90
3232;DHT22;1628;48.884;9.210;2022-07-23T05:34:45;25.20;99.90
3232;DHT22;1628;48.884;9.210;2022-07-23T05:37:12;25.20;99.90
3232;DHT22;1628;48.884;9.210;2022-07-23T05:39:39;25.30;99.90
3232;DHT22;1628;48.884;9.210;2022-07-23T05:42:06;25.30;99.90
3232;DHT22;1628;48.884;9.210;2022-07-23T05:44:34;25.30;99.90
3232;DHT22;1628;48.884;9.210;2022-07-23T05:47:01;25.40;99.90
3232;DHT22;1628;48.884;9.210;2022-07-23T05:49:28;25.40;99.90
3232;DHT22;1628;48.884;9.210;2022-07-23T05:51:55;25.40;99.90
3232;DHT22;1628;48.884;9.210;2022-07-23T05:54:21;25.30;99.90
3232;DHT22;1628;48.884;9.210;2022-07-23T05:56:48;25.30;99.90
3232;DHT22;1628;48.884;9.210;2022-07-23T05:59:15;25.30;99.90
3232;DHT22;1628;48.884;9.210;2022-07-23T06:01:43;25.30;99.90
3232;DHT22;1628;48.884;9.210;2022-07-23T06:04:10;25.30;99.90
3232;DHT22;1628;48.884;9.210;2022-07-23T06:06:37;25.20;99.90
3232;DHT22;1628;48.884;9.210;2022-07-23T06:09:03;25.20;99.90
3232;DHT22;1628;48.884;9.210;2022-07-23T06:11:30;25.20;99.90
3232;DHT22;1628;48.884;9.210;2022-07-23T06:13:57;25.10;99.90
3232;DHT22;1628;48.884;9.210;2022-07-23T06:16:24;25.00;99.90
3232;DHT22;1628;48.884;9.210;2022-07-23T06:18:52;25.00;99.90
3232;DHT22;1628;48.884;9.210;2022-07-23T06:21:18;24.90;99.90
3232;DHT22;1628;48.884;9.210;2022-07-23T06:23:45;24.90;99.90
3232;DHT22;1628;48.884;9.210;2022-07-23T06:26:12;24.80;99.90
3232;DHT22;1628;48.884;9.210;2022-07-23T06:28:39;24.90;99.90
3232;DHT22;1628;48.884;9.210;2022-07-23T06:31:05;24.90;99.90
3232;DHT22;1628;48.884;9.210;2022-07-23T06:33:33;24.90;99.90
3232;DHT22;1628;48.884;9.210;2022-07-23T06:36:01;24.90;99.90
3232;DHT22;1628;48.884;9.210;2022-07-23T06:38:27;25.20;99.90
3232;DHT22;1628;48.884;9.210;2022-07-23T06:40:54;25.40;99.90
3232;DHT22;1628;48.884;9.210;2022-07-23T06:43:21;25.40;99.90
3232;DHT22;1628;48.884;9.210;2022-07-23T06:45:47;25.70;99.90
3232;DHT22;1628;48.884;9.210;2022-07-23T06:48:14;26.00;99.90
3232;DHT22;1628;48.884;9.210;2022-07-23T06:50:41;26.10;99.90
3232;DHT22;1628;48.884;9.210;2022-07-23T06:53:09;26.20;99.90
3232;DHT22;1628;48.884;9.210;2022-07-23T06:55:36;26.10;99.10
3232;DHT22;1628;48.884;9.210;2022-07-23T06:58:04;25.90;99.40
3232;DHT22;1628;48.884;9.210;2022-07-23T07:00:30;25.80;99.90
3232;DHT22;1628;48.884;9.210;2022-07-23T07:02:57;25.70;99.90
3232;DHT22;1628;48.884;9.210;2022-07-23T07:05:24;25.40;99.90
3232;DHT22;1628;48.884;9.210;2022-07-23T07:07:53;25.20;99.90
3232;DHT22;1628;48.884;9.210;2022-07-23T07:10:21;25.00;99.90
3232;DHT22;1628;48.884;9.210;2022-07-23T07:12:48;24.70;99.90
3232;DHT22;1628;48.884;9.210;2022-07-23T07:15:15;24.60;99.90
3232;DHT22;1628;48.884;9.210;2022-07-23T07:17:42;24.30;99.90
3232;DHT22;1628;48.884;9.210;2022-07-23T07:20:09;24.00;99.90
3232;DHT22;1628;48.884;9.210;2022-07-23T07:22:36;23.90;99.90
3232;DHT22;1628;48.884;9.210;2022-07-23T07:25:04;23.70;99.90
3232;DHT22;1628;48.884;9.210;2022-07-23T07:27:32;23.50;99.90
3232;DHT22;1628;48.884;9.210;2022-07-23T07:29:59;23.30;99.90
3232;DHT22;1628;48.884;9.210;2022-07-23T07:32:25;23.20;99.90
3232;DHT22;1628;48.884;9.210;2022-07-23T07:34:52;23.20;99.90
3232;DHT22;1628;48.884;9.210;2022-07-23T07:37:19;23.00;99.90
3232;DHT22;1628;48.884;9.210;2022-07-23T07:39:46;22.90;99.90
3232;DHT22;1628;48.884;9.210;2022-07-23T07:42:12;22.90;99.90
3232;DHT22;1628;48.884;9.210;2022-07-23T07:44:40;23.00;99.90
3232;DHT22;1628;48.884;9.210;2022-07-23T07:47:07;23.10;99.90
3232;DHT22;1628;48.884;9.210;2022-07-23T07:49:34;23.20;99.90
3232;DHT22;1628;48.884;9.210;2022-07-23T07:52:01;23.40;99.90
3232;DHT22;1628;48.884;9.210;2022-07-23T07:54:27;23.60;99.90
3232;DHT22;1628;48.884;9.210;2022-07-23T07:56:54;24.00;99.90
3232;DHT22;1628;48.884;9.210;2022-07-23T07:59:21;24.40;99.90
3232;DHT22;1628;48.884;9.210;2022-07-23T08:01:49;24.50;99.90
3232;DHT22;1628;48.884;9.210;2022-07-23T08:04:15;24.70;99.90
3232;DHT22;1628;48.884;9.210;2022-07-23T08:06:42;24.70;99.90
3232;DHT22;1628;48.884;9.210;2022-07-23T08:09:09;24.60;99.90
3232;DHT22;1628;48.884;9.210;2022-07-23T08:11:36;24.50;99.90
3232;DHT22;1628;48.884;9.210;2022-07-23T08:14:03;24.50;99.90
3232;DHT22;1628;48.884;9.210;2022-07-23T08:16:30;24.40;99.90
3232;DHT22;1628;48.884;9.210;2022-07-23T08:18:58;24.50;99.90
3232;DHT22;1628;48.884;9.210;2022-07-23T08:21:25;24.50;99.90
3232;DHT22;1628;48.884;9.210;2022-07-23T08:23:51;24.40;99.90
3232;DHT22;1628;48.884;9.210;2022-07-23T08:26:18;24.40;99.90
3232;DHT22;1628;48.884;9.210;2022-07-23T08:28:45;24.10;99.90
3232;DHT22;1628;48.884;9.210;2022-07-23T08:31:11;24.10;99.90
3232;DHT22;1628;48.884;9.210;2022-07-23T08:33:38;24.10;99.90
3232;DHT22;1628;48.884;9.210;2022-07-23T08:36:07;24.20;99.90
3232;DHT22;1628;48.884;9.210;2022-07-23T08:38:34;24.40;99.90
3232;DHT22;1628;48.884;9.210;2022-07-23T08:41:01;24.70;99.90
3232;DHT22;1628;48.884;9.210;2022-07-23T08:43:31;24.80;99.90
3232;DHT22;1628;48.884;9.210;2022-07-23T08:46:00;24.80;99.90
3232;DHT22;1628;48.884;9.210;2022-07-23T08:48:28;24.80;99.90
3232;DHT22;1628;48.884;9.210;2022-07-23T08:50:56;24.80;99.90
3232;DHT22;1628;48.884;9.210;2022-07-23T08:53:26;25.10;99.90
3232;DHT22;1628;48.884;9.210;2022-07-23T08:55:55;25.40;99.90
3232;DHT22;1628;48.884;9.210;2022-07-23T08:58:22;26.00;99.90
3232;DHT22;1628;48.884;9.210;2022-07-23T09:00:49;26.90;99.90
3232;DHT22;1628;48.884;9.210;2022-07-23T09:03:17;27.60;99.90
3232;DHT22;1628;48.884;9.210;2022-07-23T09:05:44;28.30;99.90
3232;DHT22;1628;48.884;9.210;2022-07-23T09:08:13;29.30;99.90
3232;DHT22;1628;48.884;9.210;2022-07-23T09:10:46;30.40;97.40
3232;DHT22;1628;48.884;9.210;2022-07-23T09:13:34;31.20;93.70
3232;DHT22;1628;48.884;9.210;2022-07-23T09:16:04;31.60;92.50
3232;DHT22;1628;48.884;9.210;2022-07-23T09:18:37;31.70;91.40
3232;DHT22;1628;48.884;9.210;2022-07-23T09:21:23;31.90;90.00
3232;DHT22;1628;48.884;9.210;2022-07-23T09:23:53;31.70;88.00
3232;DHT22;1628;48.884;9.210;2022-07-23T09:29:09;30.90;88.70
3232;DHT22;1628;48.884;9.210;2022-07-23T09:31:46;30.60;89.50
3232;DHT22;1628;48.884;9.210;2022-07-23T09:34:16;30.60;90.40
3232;DHT22;1628;48.884;9.210;2022-07-23T09:36:44;30.30;91.00
3232;DHT22;1628;48.884;9.210;2022-07-23T09:39:12;30.70;87.70
3232;DHT22;1628;48.884;9.210;2022-07-23T09:41:42;31.20;85.90
3232;DHT22;1628;48.884;9.210;2022-07-23T09:44:14;31.90;81.20
3232;DHT22;1628;48.884;9.210;2022-07-23T09:46:43;32.40;76.30
3232;DHT22;1628;48.884;9.210;2022-07-23T09:49:18;32.90;75.20
3232;DHT22;1628;48.884;9.210;2022-07-23T09:51:47;33.40;72.10
3232;DHT22;1628;48.884;9.210;2022-07-23T09:54:25;34.10;70.00
3232;DHT22;1628;48.884;9.210;2022-07-23T09:56:56;34.80;68.10
3232;DHT22;1628;48.884;9.210;2022-07-23T09:59:25;34.50;68.50
3232;DHT22;1628;48.884;9.210;2022-07-23T10:01:53;34.70;69.90
3232;DHT22;1628;48.884;9.210;2022-07-23T10:04:22;35.30;65.50
3232;DHT22;1628;48.884;9.210;2022-07-23T10:06:52;35.90;63.70
3232;DHT22;1628;48.884;9.210;2022-07-23T10:09:23;35.70;63.50
3232;DHT22;1628;48.884;9.210;2022-07-23T10:11:51;35.80;63.80
3232;DHT22;1628;48.884;9.210;2022-07-23T10:14:19;35.50;65.10
3232;DHT22;1628;48.884;9.210;2022-07-23T10:16:47;35.60;65.90
3232;DHT22;1628;48.884;9.210;2022-07-23T10:19:14;35.40;66.30
3232;DHT22;1628;48.884;9.210;2022-07-23T10:21:46;35.80;64.70
3232;DHT22;1628;48.884;9.210;2022-07-23T10:24:21;36.20;61.80
3232;DHT22;1628;48.884;9.210;2022-07-23T10:26:57;36.30;62.40
3232;DHT22;1628;48.884;9.210;2022-07-23T10:29:38;36.60;63.00
3232;DHT22;1628;48.884;9.210;2022-07-23T10:32:17;37.00;60.40
3232;DHT22;1628;48.884;9.210;2022-07-23T10:34:54;36.90;61.70
3232;DHT22;1628;48.884;9.210;2022-07-23T10:37:24;36.80;59.20
3232;DHT22;1628;48.884;9.210;2022-07-23T10:40:10;36.30;59.40
3232;DHT22;1628;48.884;9.210;2022-07-23T10:42:37;36.10;60.00
3232;DHT22;1628;48.884;9.210;2022-07-23T10:45:24;35.70;60.30
3232;DHT22;1628;48.884;9.210;2022-07-23T10:47:51;35.70;61.90
3232;DHT22;1628;48.884;9.210;2022-07-23T10:50:21;35.10;61.30
3232;DHT22;1628;48.884;9.210;2022-07-23T10:53:14;34.60;62.20
3232;DHT22;1628;48.884;9.210;2022-07-23T10:55:48;34.50;63.10
3232;DHT22;1628;48.884;9.210;2022-07-23T10:58:23;34.60;64.80
3232;DHT22;1628;48.884;9.210;2022-07-23T11:01:32;34.20;61.80
3232;DHT22;1628;48.884;9.210;2022-07-23T11:03:59;34.10;62.80
3232;DHT22;1628;48.884;9.210;2022-07-23T11:09:28;33.30;62.50
3232;DHT22;1628;48.884;9.210;2022-07-23T11:15:04;33.10;60.00
3232;DHT22;1628;48.884;9.210;2022-07-23T11:17:34;32.80;63.40
3232;DHT22;1628;48.884;9.210;2022-07-23T11:20:18;32.80;64.30
3232;DHT22;1628;48.884;9.210;2022-07-23T11:22:50;32.80;63.00
3232;DHT22;1628;48.884;9.210;2022-07-23T11:25:33;33.00;63.90
3232;DHT22;1628;48.884;9.210;2022-07-23T11:28:11;32.70;65.10
3232;DHT22;1628;48.884;9.210;2022-07-23T11:30:42;32.50;63.30
3232;DHT22;1628;48.884;9.210;2022-07-23T11:33:20;31.70;64.40
3232;DHT22;1628;48.884;9.210;2022-07-23T11:35:50;31.70;65.60
3232;DHT22;1628;48.884;9.210;2022-07-23T11:38:25;31.40;65.60
3232;DHT22;1628;48.884;9.210;2022-07-23T11:40:53;31.10;67.00
3232;DHT22;1628;48.884;9.210;2022-07-23T11:43:22;31.10;67.70
3232;DHT22;1628;48.884;9.210;2022-07-23T11:45:51;31.10;67.90
3232;DHT22;1628;48.884;9.210;2022-07-23T11:48:21;30.90;68.30
3232;DHT22;1628;48.884;9.210;2022-07-23T11:50:48;31.00;69.50
3232;DHT22;1628;48.884;9.210;2022-07-23T11:53:21;31.10;67.20
3232;DHT22;1628;48.884;9.210;2022-07-23T11:55:50;31.00;68.10
3232;DHT22;1628;48.884;9.210;2022-07-23T11:58:17;31.20;70.50
3232;DHT22;1628;48.884;9.210;2022-07-23T12:00:44;31.60;67.40
3232;DHT22;1628;48.884;9.210;2022-07-23T12:03:10;31.80;68.30
3232;DHT22;1628;48.884;9.210;2022-07-23T12:05:39;32.00;68.80
3232;DHT22;1628;48.884;9.210;2022-07-23T12:08:08;32.20;67.00
3232;DHT22;1628;48.884;9.210;2022-07-23T12:10:36;32.00;68.50
3232;DHT22;1628;48.884;9.210;2022-07-23T12:13:05;31.90;68.90
3232;DHT22;1628;48.884;9.210;2022-07-23T12:15:35;31.90;69.20
3232;DHT22;1628;48.884;9.210;2022-07-23T12:18:05;31.80;70.80
3232;DHT22;1628;48.884;9.210;2022-07-23T12:20:34;31.70;71.20
3232;DHT22;1628;48.884;9.210;2022-07-23T12:23:06;31.40;71.30
3232;DHT22;1628;48.884;9.210;2022-07-23T12:25:34;31.20;72.30
3232;DHT22;1628;48.884;9.210;2022-07-23T12:28:04;31.30;72.40
3232;DHT22;1628;48.884;9.210;2022-07-23T12:30:33;31.40;72.40
3232;DHT22;1628;48.884;9.210;2022-07-23T12:33:00;31.40;71.20
3232;DHT22;1628;48.884;9.210;2022-07-23T12:35:33;31.60;73.10
3232;DHT22;1628;48.884;9.210;2022-07-23T12:38:03;31.80;70.40
3232;DHT22;1628;48.884;9.210;2022-07-23T12:40:32;31.60;70.50
3232;DHT22;1628;48.884;9.210;2022-07-23T12:43:01;31.30;72.00
3232;DHT22;1628;48.884;9.210;2022-07-23T12:45:43;31.10;71.10
3232;DHT22;1628;48.884;9.210;2022-07-23T12:48:19;31.10;73.70
3232;DHT22;1628;48.884;9.210;2022-07-23T12:50:51;31.00;72.10
3232;DHT22;1628;48.884;9.210;2022-07-23T12:53:21;30.80;73.20
3232;DHT22;1628;48.884;9.210;2022-07-23T12:55:49;30.40;74.20
3232;DHT22;1628;48.884;9.210;2022-07-23T12:58:17;30.00;75.00
3232;DHT22;1628;48.884;9.210;2022-07-23T13:00:56;29.80;74.20
3232;DHT22;1628;48.884;9.210;2022-07-23T13:03:26;29.80;75.40
3232;DHT22;1628;48.884;9.210;2022-07-23T13:05:53;30.00;74.10
3232;DHT22;1628;48.884;9.210;2022-07-23T13:08:23;30.00;74.40
3232;DHT22;1628;48.884;9.210;2022-07-23T13:10:50;29.90;73.60
3232;DHT22;1628;48.884;9.210;2022-07-23T13:13:20;29.90;73.20
3232;DHT22;1628;48.884;9.210;2022-07-23T13:15:47;29.90;71.10
3232;DHT22;1628;48.884;9.210;2022-07-23T13:18:14;30.10;71.70
3232;DHT22;1628;48.884;9.210;2022-07-23T13:20:42;30.00;70.70
3232;DHT22;1628;48.884;9.210;2022-07-23T13:23:09;30.20;71.20
3232;DHT22;1628;48.884;9.210;2022-07-23T13:25:37;30.30;72.30
3232;DHT22;1628;48.884;9.210;2022-07-23T13:28:04;30.30;72.60
3232;DHT22;1628;48.884;9.210;2022-07-23T13:30:31;30.40;74.40
3232;DHT22;1628;48.884;9.210;2022-07-23T13:32:57;30.60;75.00
3232;DHT22;1628;48.884;9.210;2022-07-23T13:35:24;30.80;75.00
3232;DHT22;1628;48.884;9.210;2022-07-23T13:37:51;30.90;73.80
3232;DHT22;1628;48.884;9.210;2022-07-23T13:40:18;31.00;75.00
3232;DHT22;1628;48.884;9.210;2022-07-23T13:42:46;31.20;72.30
3232;DHT22;1628;48.884;9.210;2022-07-23T13:45:13;31.20;74.00
3232;DHT22;1628;48.884;9.210;2022-07-23T13:47:40;31.40;70.50
3232;DHT22;1628;48.884;9.210;2022-07-23T13:50:07;31.50;71.30
3232;DHT22;1628;48.884;9.210;2022-07-23T13:52:34;31.60;71.90
3232;DHT22;1628;48.884;9.210;2022-07-23T13:55:02;31.40;69.60
3232;DHT22;1628;48.884;9.210;2022-07-23T13:57:29;31.60;71.00
3232;DHT22;1628;48.884;9.210;2022-07-23T13:59:57;31.50;67.90
3232;DHT22;1628;48.884;9.210;2022-07-23T14:02:24;31.50;69.10
3232;DHT22;1628;48.884;9.210;2022-07-23T14:04:51;31.60;68.20
3232;DHT22;1628;48.884;9.210;2022-07-23T14:07:19;31.60;68.80
3232;DHT22;1628;48.884;9.210;2022-07-23T14:09:46;31.70;67.40
3232;DHT22;1628;48.884;9.210;2022-07-23T14:12:12;31.70;64.40
3232;DHT22;1628;48.884;9.210;2022-07-23T14:14:39;31.80;66.30
3232;DHT22;1628;48.884;9.210;2022-07-23T14:17:07;32.00;65.10
3232;DHT22;1628;48.884;9.210;2022-07-23T14:19:34;32.30;66.50
3232;DHT22;1628;48.884;9.210;2022-07-23T14:22:01;32.40;64.10
3232;DHT22;1628;48.884;9.210;2022-07-23T14:24:27;32.40;63.10
3232;DHT22;1628;48.884;9.210;2022-07-23T14:26:54;32.50;64.50
3232;DHT22;1628;48.884;9.210;2022-07-23T14:29:21;32.40;62.10
3232;DHT22;1628;48.884;9.210;2022-07-23T14:31:48;32.30;62.70
3232;DHT22;1628;48.884;9.210;2022-07-23T14:34:16;32.10;62.50
3232;DHT22;1628;48.884;9.210;2022-07-23T14:36:43;32.30;64.30
3232;DHT22;1628;48.884;9.210;2022-07-23T14:39:10;32.20;63.60
3232;DHT22;1628;48.884;9.210;2022-07-23T14:41:37;32.00;63.50
3232;DHT22;1628;48.884;9.210;2022-07-23T14:44:04;32.00;64.50
3232;DHT22;1628;48.884;9.210;2022-07-23T14:46:31;32.00;64.80
3232;DHT22;1628;48.884;9.210;2022-07-23T14:48:58;32.00;62.80
3232;DHT22;1628;48.884;9.210;2022-07-23T14:51:26;31.90;64.00
3232;DHT22;1628;48.884;9.210;2022-07-23T14:53:53;31.80;63.70
3232;DHT22;1628;48.884;9.210;2022-07-23T14:56:20;31.70;65.80
3232;DHT22;1628;48.884;9.210;2022-07-23T14:58:46;31.60;66.30
3232;DHT22;1628;48.884;9.210;2022-07-23T15:01:13;31.40;65.60
3232;DHT22;1628;48.884;9.210;2022-07-23T15:03:40;31.20;67.30
3232;DHT22;1628;48.884;9.210;2022-07-23T15:06:07;31.00;66.40
3232;DHT22;1628;48.884;9.210;2022-07-23T15:08:35;30.80;66.00
3232;DHT22;1628;48.884;9.210;2022-07-23T15:11:02;30.70;66.30
3232;DHT22;1628;48.884;9.210;2022-07-23T15:13:28;30.50;66.60
3232;DHT22;1628;48.884;9.210;2022-07-23T15:15:55;30.40;68.50
3232;DHT22;1628;48.884;9.210;2022-07-23T15:18:22;30.40;69.40
3232;DHT22;1628;48.884;9.210;2022-07-23T15:20:48;30.40;69.60
3232;DHT22;1628;48.884;9.210;2022-07-23T15:23:15;30.60;70.00
3232;DHT22;1628;48.884;9.210;2022-07-23T15:25:43;30.80;68.80
3232;DHT22;1628;48.884;9.210;2022-07-23T15:28:10;30.90;67.40
3232;DHT22;1628;48.884;9.210;2022-07-23T15:30:36;30.90;67.40
3232;DHT22;1628;48.884;9.210;2022-07-23T15:33:03;30.90;68.10
3232;DHT22;1628;48.884;9.210;2022-07-23T15:35:31;30.90;69.10
3232;DHT22;1628;48.884;9.210;2022-07-23T15:37:58;31.00;68.30
3232;DHT22;1628;48.884;9.210;2022-07-23T15:40:25;31.00;68.30
3232;DHT22;1628;48.884;9.210;2022-07-23T15:42:53;30.70;67.80
3232;DHT22;1628;48.884;9.210;2022-07-23T15:45:20;30.50;67.80
3232;DHT22;1628;48.884;9.210;2022-07-23T15:47:47;30.60;69.70
3232;DHT22;1628;48.884;9.210;2022-07-23T15:50:15;30.70;70.80
3232;DHT22;1628;48.884;9.210;2022-07-23T15:52:42;30.70;68.10
3232;DHT22;1628;48.884;9.210;2022-07-23T15:55:09;30.70;68.20
3232;DHT22;1628;48.884;9.210;2022-07-23T15:57:36;30.70;69.30
3232;DHT22;1628;48.884;9.210;2022-07-23T16:00:06;30.70;68.20
3232;DHT22;1628;48.884;9.210;2022-07-23T16:02:33;30.80;68.80
3232;DHT22;1628;48.884;9.210;2022-07-23T16:05:00;31.00;68.80
3232;DHT22;1628;48.884;9.210;2022-07-23T16:07:27;31.10;68.30
3232;DHT22;1628;48.884;9.210;2022-07-23T16:09:54;31.20;69.00
3232;DHT22;1628;48.884;9.210;2022-07-23T16:12:20;31.20;69.20
3232;DHT22;1628;48.884;9.210;2022-07-23T16:14:47;31.20;71.00
3232;DHT22;1628;48.884;9.210;2022-07-23T16:17:15;31.10;67.60
3232;DHT22;1628;48.884;9.210;2022-07-23T16:19:42;31.10;66.10
3232;DHT22;1628;48.884;9.210;2022-07-23T16:22:11;30.80;65.50
3232;DHT22;1628;48.884;9.210;2022-07-23T16:24:41;30.40;69.10
3232;DHT22;1628;48.884;9.210;2022-07-23T16:27:07;30.20;71.20
3232;DHT22;1628;48.884;9.210;2022-07-23T16:29:34;30.00;72.20
3232;DHT22;1628;48.884;9.210;2022-07-23T16:32:01;30.00;73.40
3232;DHT22;1628;48.884;9.210;2022-07-23T16:34:29;30.00;73.10
3232;DHT22;1628;48.884;9.210;2022-07-23T16:36:55;29.90;73.70
3232;DHT22;1628;48.884;9.210;2022-07-23T16:39:22;29.90;73.60
3232;DHT22;1628;48.884;9.210;2022-07-23T16:41:49;29.80;73.20
3232;DHT22;1628;48.884;9.210;2022-07-23T16:44:16;29.90;74.00
3232;DHT22;1628;48.884;9.210;2022-07-23T16:46:43;29.90;74.00
3232;DHT22;1628;48.884;9.210;2022-07-23T16:49:10;29.80;74.30
3232;DHT22;1628;48.884;9.210;2022-07-23T16:51:38;29.70;74.40
3232;DHT22;1628;48.884;9.210;2022-07-23T16:54:04;29.50;75.30
3232;DHT22;1628;48.884;9.210;2022-07-23T16:56:31;29.30;76.30
3232;DHT22;1628;48.884;9.210;2022-07-23T16:58:58;29.20;77.40
3232;DHT22;1628;48.884;9.210;2022-07-23T17:01:25;29.10;77.20
3232;DHT22;1628;48.884;9.210;2022-07-23T17:03:51;29.10;77.90
3232;DHT22;1628;48.884;9.210;2022-07-23T17:06:18;29.10;77.50
3232;DHT22;1628;48.884;9.210;2022-07-23T17:08:46;29.00;77.70
3232;DHT22;1628;48.884;9.210;2022-07-23T17:11:13;28.90;78.30
3232;DHT22;1628;48.884;9.210;2022-07-23T17:13:39;28.80;77.80
3232;DHT22;1628;48.884;9.210;2022-07-23T17:16:07;28.80;79.20
3232;DHT22;1628;48.884;9.210;2022-07-23T17:18:33;28.80;79.10
3232;DHT22;1628;48.884;9.210;2022-07-23T17:21:00;28.80;79.00
3232;DHT22;1628;48.884;9.210;2022-07-23T17:23:28;28.80;79.10
3232;DHT22;1628;48.884;9.210;2022-07-23T17:25:56;28.80;79.70
3232;DHT22;1628;48.884;9.210;2022-07-23T17:28:23;28.80;79.60
3232;DHT22;1628;48.884;9.210;2022-07-23T17:30:50;28.70;80.40
3232;DHT22;1628;48.884;9.210;2022-07-23T17:33:17;28.70;79.30
3232;DHT22;1628;48.884;9.210;2022-07-23T17:35:43;28.60;79.80
3232;DHT22;1628;48.884;9.210;2022-07-23T17:38:10;28.50;80.70
3232;DHT22;1628;48.884;9.210;2022-07-23T17:40:37;28.50;81.10
3232;DHT22;1628;48.884;9.210;2022-07-23T17:43:05;28.60;80.40
3232;DHT22;1628;48.884;9.210;2022-07-23T17:45:31;28.60;81.50
3232;DHT22;1628;48.884;9.210;2022-07-23T17:47:58;28.60;80.80
3232;DHT22;1628;48.884;9.210;2022-07-23T17:50:25;28.60;80.80
3232;DHT22;1628;48.884;9.210;2022-07-23T17:52:53;28.70;81.20
3232;DHT22;1628;48.884;9.210;2022-07-23T17:55:21;28.70;80.50
3232;DHT22;1628;48.884;9.210;2022-07-23T17:57:49;28.70;81.00
3232;DHT22;1628;48.884;9.210;2022-07-23T18:00:20;28.60;81.30
3232;DHT22;1628;48.884;9.210;2022-07-23T18:02:47;28.50;80.90
3232;DHT22;1628;48.884;9.210;2022-07-23T18:05:14;28.40;81.30
3232;DHT22;1628;48.884;9.210;2022-07-23T18:07:41;28.50;81.50
3232;DHT22;1628;48.884;9.210;2022-07-23T18:10:09;28.40;82.20
3232;DHT22;1628;48.884;9.210;2022-07-23T18:12:35;28.40;82.00
3232;DHT22;1628;48.884;9.210;2022-07-23T18:15:03;28.30;82.10
3232;DHT22;1628;48.884;9.210;2022-07-23T18:17:31;28.30;82.40
3232;DHT22;1628;48.884;9.210;2022-07-23T18:19:58;28.30;82.20
3232;DHT22;1628;48.884;9.210;2022-07-23T18:22:25;28.30;82.20
3232;DHT22;1628;48.884;9.210;2022-07-23T18:24:51;28.20;82.30
3232;DHT22;1628;48.884;9.210;2022-07-23T18:27:18;28.10;82.70
3232;DHT22;1628;48.884;9.210;2022-07-23T18:29:45;28.00;83.30
3232;DHT22;1628;48.884;9.210;2022-07-23T18:32:11;28.00;83.30
3232;DHT22;1628;48.884;9.210;2022-07-23T18:34:39;27.90;84.50
3232;DHT22;1628;48.884;9.210;2022-07-23T18:37:07;27.90;86.40
3232;DHT22;1628;48.884;9.210;2022-07-23T18:39:34;28.00;85.70
3232;DHT22;1628;48.884;9.210;2022-07-23T18:42:01;27.90;85.00
3232;DHT22;1628;48.884;9.210;2022-07-23T18:44:29;28.00;86.80
3232;DHT22;1628;48.884;9.210;2022-07-23T18:46:56;27.90;86.40
3232;DHT22;1628;48.884;9.210;2022-07-23T18:49:22;27.90;85.40
3232;DHT22;1628;48.884;9.210;2022-07-23T18:51:50;27.90;87.80
3232;DHT22;1628;48.884;9.210;2022-07-23T18:54:20;27.90;86.10
3232;DHT22;1628;48.884;9.210;2022-07-23T18:56:46;27.90;86.50
3232;DHT22;1628;48.884;9.210;2022-07-23T18:59:13;27.90;87.20
3232;DHT22;1628;48.884;9.210;2022-07-23T19:01:40;27.80;86.70
3232;DHT22;1628;48.884;9.210;2022-07-23T19:04:07;27.80;87.10
3232;DHT22;1628;48.884;9.210;2022-07-23T19:06:34;27.90;86.70
3232;DHT22;1628;48.884;9.210;2022-07-23T19:09:02;27.80;87.30
3232;DHT22;1628;48.884;9.210;2022-07-23T19:11:29;27.80;88.30
3232;DHT22;1628;48.884;9.210;2022-07-23T19:13:56;27.80;89.20
3232;DHT22;1628;48.884;9.210;2022-07-23T19:16:23;27.70;89.20
3232;DHT22;1628;48.884;9.210;2022-07-23T19:18:51;27.70;89.90
3232;DHT22;1628;48.884;9.210;2022-07-23T19:21:18;27.60;89.60
3232;DHT22;1628;48.884;9.210;2022-07-23T19:23:45;27.60;90.10
3232;DHT22;1628;48.884;9.210;2022-07-23T19:26:13;27.60;90.00
3232;DHT22;1628;48.884;9.210;2022-07-23T19:28:40;27.50;89.80
3232;DHT22;1628;48.884;9.210;2022-07-23T19:31:06;27.50;90.30
3232;DHT22;1628;48.884;9.210;2022-07-23T19:33:33;27.50;90.90
3232;DHT22;1628;48.884;9.210;2022-07-23T19:36:00;27.50;91.00
3232;DHT22;1628;48.884;9.210;2022-07-23T19:38:27;27.50;91.10
3232;DHT22;1628;48.884;9.210;2022-07-23T19:40:54;27.50;90.70
3232;DHT22;1628;48.884;9.210;2022-07-23T19:43:22;27.40;91.30
3232;DHT22;1628;48.884;9.210;2022-07-23T19:45:49;27.40;91.40
3232;DHT22;1628;48.884;9.210;2022-07-23T19:48:16;27.30;91.30
3232;DHT22;1628;48.884;9.210;2022-07-23T19:50:42;27.20;91.20
3232;DHT22;1628;48.884;9.210;2022-07-23T19:53:09;27.20;91.40
3232;DHT22;1628;48.884;9.210;2022-07-23T19:55:36;27.20;91.60
3232;DHT22;1628;48.884;9.210;2022-07-23T19:58:03;27.20;91.60
3232;DHT22;1628;48.884;9.210;2022-07-23T20:00:31;27.20;91.60
3232;DHT22;1628;48.884;9.210;2022-07-23T20:02:57;27.10;91.50
3232;DHT22;1628;48.884;9.210;2022-07-23T20:05:24;27.10;91.60
3232;DHT22;1628;48.884;9.210;2022-07-23T20:07:51;27.10;91.70
3232;DHT22;1628;48.884;9.210;2022-07-23T20:10:18;27.00;91.60
3232;DHT22;1628;48.884;9.210;2022-07-23T20:12:44;27.00;91.90
3232;DHT22;1628;48.884;9.210;2022-07-23T20:15:12;27.00;92.20
3232;DHT22;1628;48.884;9.210;2022-07-23T20:17:40;27.00;92.40